Time;durP1;ratioP1;P1;durP2;ratioP2;P2;SDS_P1;SDS_P2;PMS_P1;PMS_P2;Temp;Humidity;BMP_temperature;BMP_pressure;BME280_temperature;BME280_humidity;BME280_pressure;Samples;Min_cycle;Max_cycle;Signal;HPM_P1;HPM_P2
2021/12/30 00:02:17;;;;;;;;;;;;;;;9.42;77.71;101166.94;5097131;28;19920;-77
2021/12/30 00:04:42;;;;;;;;;;;;;;;9.44;77.19;101162.66;5101827;28;19920;-78
2021/12/30 00:07:09;;;;;;;;;;;;;;;9.47;76.37;101175.94;5112956;28;19926;-78
2021/12/30 00:09:35;;;;;;;;;;;;;;;9.57;75.53;101174.59;5103713;28;19930;-79
2021/12/30 00:12:00;;;;;;;;;;;;;;;9.56;75.22;101176.34;5095274;28;20471;-79
2021/12/30 00:14:25;;;;;;;;;;;;;;;9.64;74.62;101174.06;5115805;28;19923;-78
2021/12/30 00:16:51;;;;;;;;;;;;;;;9.68;74.13;101174.28;5097776;28;19920;-79
2021/12/30 00:19:18;;;;;;;;;;;;;;;9.75;74.19;101179.81;5098518;28;21702;-78
2021/12/30 00:21:44;;;;;;;;;;;;;;;9.73;74.43;101177.13;5101424;28;19946;-79
2021/12/30 00:24:10;;;;;;;;;;;;;;;9.75;74.05;101172.81;5114227;28;19916;-79
2021/12/30 00:26:35;;;;;;;;;;;;;;;9.84;72.80;101181.09;5108808;28;19975;-79
2021/12/30 00:29:02;;;;;;;;;;;;;;;9.84;72.57;101189.00;5115781;28;20187;-79
2021/12/30 00:31:28;;;;;;;;;;;;;;;9.92;71.98;101186.72;5114485;28;19927;-78
2021/12/30 00:33:53;;;;;;;;;;;;;;;9.94;71.27;101190.28;5097859;28;19928;-79
2021/12/30 00:36:19;;;;;;;;;;;;;;;9.97;70.52;101189.53;5099055;28;19926;-79
2021/12/30 00:38:46;;;;;;;;;;;;;;;9.99;69.96;101187.88;5110656;28;19923;-79
2021/12/30 00:41:12;;;;;;;;;;;;;;;10.08;69.46;101183.00;5111203;28;19969;-79
2021/12/30 00:43:37;;;;;;;;;;;;;;;10.05;69.13;101198.66;5114871;28;19920;-79
2021/12/30 00:46:03;;;;;;;;;;;;;;;10.10;68.77;101194.53;5104112;28;19926;-78
2021/12/30 00:48:28;;;;;;;;;;;;;;;10.13;68.47;101204.25;5113754;28;19919;-79
2021/12/30 00:50:54;;;;;;;;;;;;;;;10.15;68.26;101195.59;5107074;28;20407;-79
2021/12/30 00:53:19;;;;;;;;;;;;;;;10.14;68.09;101208.69;5106692;28;19920;-79
2021/12/30 00:55:45;;;;;;;;;;;;;;;10.19;67.85;101205.44;5114146;28;19927;-79
2021/12/30 00:58:14;;;;;;;;;;;;;;;10.20;67.61;101203.69;5105280;28;20431;-79
2021/12/30 01:00:41;;;;;;;;;;;;;;;10.22;67.47;101205.56;5112419;28;20058;-79
2021/12/30 01:03:07;;;;;;;;;;;;;;;10.23;67.39;101209.09;5119801;27;19962;-79
2021/12/30 01:05:33;;;;;;;;;;;;;;;10.27;67.22;101208.41;5129191;27;20324;-78
2021/12/30 01:07:59;;;;;;;;;;;;;;;10.29;67.09;101203.22;5130608;27;20007;-79
2021/12/30 01:10:24;;;;;;;;;;;;;;;10.31;66.95;101193.63;5105443;28;19976;-79
2021/12/30 01:12:51;;;;;;;;;;;;;;;10.36;66.77;101194.75;5108071;28;20317;-79
2021/12/30 01:15:18;;;;;;;;;;;;;;;10.32;66.70;101200.72;5115661;28;19927;-77
2021/12/30 01:17:57;;;;;;;;;;;;;;;10.34;66.59;101199.94;5098473;28;20272;-78
2021/12/30 01:20:22;;;;;;;;;;;;;;;10.36;66.52;101194.75;5094970;28;20401;-77
2021/12/30 01:22:49;;;;;;;;;;;;;;;10.34;66.39;101181.53;5109384;28;20011;-78
2021/12/30 01:25:15;;;;;;;;;;;;;;;10.44;66.31;101181.91;5115445;28;19924;-78
2021/12/30 01:27:42;;;;;;;;;;;;;;;10.48;66.30;101181.22;5106910;28;19950;-77
2021/12/30 01:30:09;;;;;;;;;;;;;;;10.51;66.38;101194.50;5115348;28;19920;-77
2021/12/30 01:32:35;;;;;;;;;;;;;;;10.48;66.43;101210.19;5113850;28;20042;-78
2021/12/30 01:35:03;;;;;;;;;;;;;;;10.51;66.39;101215.56;5100987;28;20380;-79
2021/12/30 01:37:28;;;;;;;;;;;;;;;10.49;66.36;101223.41;5104270;28;19947;-77
2021/12/30 01:39:53;;;;;;;;;;;;;;;10.54;66.35;101227.13;5114906;28;19950;-79
2021/12/30 01:42:19;;;;;;;;;;;;;;;10.56;66.36;101232.47;5103576;28;19942;-79
2021/12/30 01:44:44;;;;;;;;;;;;;;;10.58;66.41;101234.31;5105402;28;19920;-79
2021/12/30 01:47:10;;;;;;;;;;;;;;;10.64;66.51;101243.31;5108508;28;19920;-79
2021/12/30 01:49:35;;;;;;;;;;;;;;;10.67;66.57;101246.97;5095160;28;19916;-79
2021/12/30 01:52:00;;;;;;;;;;;;;;;10.65;66.63;101251.28;5100813;28;20374;-78
2021/12/30 01:54:26;;;;;;;;;;;;;;;10.60;66.60;101243.19;5113980;28;19920;-78
2021/12/30 01:56:53;;;;;;;;;;;;;;;10.66;66.49;101257.44;5100551;28;20011;-78
2021/12/30 01:59:23;;;;;;;;;;;;;;;10.65;66.50;101256.53;5113010;28;20041;-77
2021/12/30 02:01:53;;;;;;;;;;;;;;;10.68;66.49;101259.31;5094546;28;19922;-78
2021/12/30 02:04:18;;;;;;;;;;;;;;;10.73;66.54;101262.13;5112831;28;19923;-78
2021/12/30 02:06:43;;;;;;;;;;;;;;;10.76;66.62;101251.72;5111550;28;19924;-78
2021/12/30 02:09:10;;;;;;;;;;;;;;;10.73;66.60;101244.59;5111118;28;19959;-79
2021/12/30 02:11:35;;;;;;;;;;;;;;;10.74;66.60;101251.66;5114193;28;19973;-78
2021/12/30 02:14:01;;;;;;;;;;;;;;;10.80;66.50;101247.47;5097003;28;19927;-79
2021/12/30 02:16:26;;;;;;;;;;;;;;;10.78;66.63;101244.78;5094040;28;19927;-78
2021/12/30 02:18:52;;;;;;;;;;;;;;;10.78;66.62;101243.06;5103211;28;19965;-78
2021/12/30 02:21:18;;;;;;;;;;;;;;;10.78;66.58;101252.69;5094192;28;19928;-78
2021/12/30 02:23:44;;;;;;;;;;;;;;;10.80;66.51;101247.47;5103861;28;20002;-78
2021/12/30 02:26:11;;;;;;;;;;;;;;;10.81;66.61;101249.28;5107336;28;19928;-78
2021/12/30 02:28:39;;;;;;;;;;;;;;;10.85;66.68;101245.94;5106920;28;19920;-78
2021/12/30 02:31:06;;;;;;;;;;;;;;;10.82;66.85;101259.88;5104281;28;19963;-78
2021/12/30 02:33:32;;;;;;;;;;;;;;;10.86;66.83;101258.25;5105617;28;19920;-78
2021/12/30 02:35:57;;;;;;;;;;;;;;;10.86;66.87;101255.63;5113315;28;19994;-78
2021/12/30 02:38:24;;;;;;;;;;;;;;;10.89;67.01;101261.94;5104290;28;19919;-78
2021/12/30 02:40:51;;;;;;;;;;;;;;;10.92;67.18;101263.78;5113542;28;19920;-78
2021/12/30 02:43:20;;;;;;;;;;;;;;;10.94;67.32;101273.56;5107344;28;19931;-78
2021/12/30 02:45:46;;;;;;;;;;;;;;;10.89;67.46;101274.19;5092959;28;19927;-78
2021/12/30 02:48:21;;;;;;;;;;;;;;;10.95;67.40;101275.38;5108555;28;19920;-78
2021/12/30 02:50:47;;;;;;;;;;;;;;;10.99;67.47;101284.28;5107543;28;20268;-78
2021/12/30 02:53:13;;;;;;;;;;;;;;;10.99;67.51;101294.84;5102866;28;19927;-78
2021/12/30 02:55:39;;;;;;;;;;;;;;;11.04;67.20;101292.38;5097578;28;19916;-78
2021/12/30 02:58:06;;;;;;;;;;;;;;;11.03;66.89;101282.69;5108226;28;19930;-79
2021/12/30 03:00:31;;;;;;;;;;;;;;;11.04;66.82;101281.84;5107218;28;19959;-79
2021/12/30 03:02:57;;;;;;;;;;;;;;;11.04;66.65;101295.03;5092672;28;19962;-79
2021/12/30 03:05:24;;;;;;;;;;;;;;;11.05;66.37;101279.28;5101005;28;19920;-79
2021/12/30 03:07:52;;;;;;;;;;;;;;;11.07;66.27;101284.63;5094223;28;20249;-78
2021/12/30 03:10:19;;;;;;;;;;;;;;;11.10;66.17;101292.66;5099237;28;20408;-79
2021/12/30 03:12:45;;;;;;;;;;;;;;;11.09;66.17;101272.38;5107733;28;19924;-79
2021/12/30 03:15:12;;;;;;;;;;;;;;;11.07;66.19;101281.97;5094445;28;19920;-79
2021/12/30 03:17:40;;;;;;;;;;;;;;;11.05;66.15;101284.56;5101289;28;19928;-80
2021/12/30 03:20:09;;;;;;;;;;;;;;;11.06;66.10;101285.44;5100793;28;19919;-80
2021/12/30 03:22:34;;;;;;;;;;;;;;;11.10;66.07;101280.34;5113851;28;20002;-79
2021/12/30 03:25:00;;;;;;;;;;;;;;;11.03;66.11;101275.69;5110496;28;20031;-79
2021/12/30 03:27:27;;;;;;;;;;;;;;;11.07;66.00;101289.88;5098568;28;20435;-79
2021/12/30 03:29:52;;;;;;;;;;;;;;;11.00;65.96;101272.94;5098034;28;19956;-79
2021/12/30 03:32:17;;;;;;;;;;;;;;;11.05;65.82;101279.28;5110450;28;19923;-79
2021/12/30 03:34:43;;;;;;;;;;;;;;;11.02;65.76;101273.88;5107402;28;19923;-79
2021/12/30 03:37:11;;;;;;;;;;;;;;;11.03;65.67;101277.41;5097791;28;19920;-79
2021/12/30 03:39:38;;;;;;;;;;;;;;;11.01;65.57;101273.81;5099174;28;19927;-77
2021/12/30 03:42:03;;;;;;;;;;;;;;;11.06;65.43;101264.34;5099317;28;19927;-78
2021/12/30 03:44:28;;;;;;;;;;;;;;;11.02;65.36;101280.91;5103141;28;19916;-79
2021/12/30 03:46:54;;;;;;;;;;;;;;;11.01;65.25;101281.72;5100649;28;19924;-78
2021/12/30 03:49:20;;;;;;;;;;;;;;;11.01;65.13;101279.09;5099991;28;19928;-77
2021/12/30 03:51:46;;;;;;;;;;;;;;;11.02;65.06;101294.06;5099265;28;19920;-77
2021/12/30 03:54:11;;;;;;;;;;;;;;;10.99;64.99;101289.56;5110337;28;19927;-78
2021/12/30 03:56:36;;;;;;;;;;;;;;;11.02;64.92;101288.81;5097399;28;19924;-78
2021/12/30 03:59:06;;;;;;;;;;;;;;;11.05;64.86;101305.63;5108179;28;19926;-78
2021/12/30 04:01:32;;;;;;;;;;;;;;;10.99;64.84;101294.84;5099588;28;19919;-77
2021/12/30 04:03:57;;;;;;;;;;;;;;;11.00;64.81;101280.84;5113996;27;20448;-78
2021/12/30 04:06:23;;;;;;;;;;;;;;;11.00;64.80;101279.91;5104129;28;19920;-78
2021/12/30 04:08:49;;;;;;;;;;;;;;;10.97;64.79;101291.25;5101844;27;19976;-78
2021/12/30 04:11:14;;;;;;;;;;;;;;;10.99;64.76;101302.75;5119152;27;19930;-78
2021/12/30 04:13:40;;;;;;;;;;;;;;;10.96;64.79;101289.44;5121223;27;20002;-78
2021/12/30 04:16:05;;;;;;;;;;;;;;;10.95;64.78;101282.38;5119450;27;19996;-79
2021/12/30 04:18:33;;;;;;;;;;;;;;;10.94;64.77;101285.84;5118420;27;20044;-78
2021/12/30 04:20:58;;;;;;;;;;;;;;;10.95;64.73;101280.66;5117608;27;19950;-79
2021/12/30 04:23:23;;;;;;;;;;;;;;;10.93;64.73;101295.47;5111207;27;20562;-78
2021/12/30 04:25:48;;;;;;;;;;;;;;;10.94;64.71;101301.66;5107645;27;19919;-77
2021/12/30 04:28:16;;;;;;;;;;;;;;;10.92;64.72;101293.69;5107465;27;19924;-80
2021/12/30 04:30:41;;;;;;;;;;;;;;;10.90;64.66;101289.19;5120470;27;19919;-78
2021/12/30 04:33:06;;;;;;;;;;;;;;;10.86;64.63;101297.78;5103942;28;19972;-78
2021/12/30 04:35:32;;;;;;;;;;;;;;;10.87;64.60;101300.47;5112381;27;19919;-77
2021/12/30 04:37:58;;;;;;;;;;;;;;;10.91;64.57;101299.78;5111920;27;19927;-78
2021/12/30 04:40:24;;;;;;;;;;;;;;;10.90;64.57;101299.72;5107868;28;19926;-78
2021/12/30 04:42:49;;;;;;;;;;;;;;;10.92;64.55;101292.78;5099712;28;20018;-78
2021/12/30 04:45:14;;;;;;;;;;;;;;;10.96;64.55;101294.72;5101968;28;20313;-78
2021/12/30 04:47:42;;;;;;;;;;;;;;;10.93;64.56;101298.09;5107221;27;19919;-78
2021/12/30 04:50:12;;;;;;;;;;;;;;;10.93;64.59;101287.56;5119148;27;20373;-78
2021/12/30 04:52:37;;;;;;;;;;;;;;;10.94;64.59;101291.13;5117454;27;19922;-78
2021/12/30 04:55:03;;;;;;;;;;;;;;;10.95;64.62;101298.16;5118589;27;20006;-77
2021/12/30 04:57:28;;;;;;;;;;;;;;;10.95;64.66;101298.16;5118656;27;20002;-76
2021/12/30 04:59:54;;;;;;;;;;;;;;;10.93;64.69;101284.94;5111310;28;19928;-77
2021/12/30 05:02:19;;;;;;;;;;;;;;;11.00;64.71;101307.19;5099601;27;19924;-78
2021/12/30 05:04:44;;;;;;;;;;;;;;;10.99;64.79;101313.28;5117865;27;19936;-78
2021/12/30 05:07:10;;;;;;;;;;;;;;;11.01;64.85;101311.59;5119373;27;20006;-78
2021/12/30 05:09:35;;;;;;;;;;;;;;;11.04;64.91;101297.66;5117898;27;19920;-78
2021/12/30 05:12:00;;;;;;;;;;;;;;;11.10;64.97;101297.91;5105966;27;19923;-79
2021/12/30 05:14:25;;;;;;;;;;;;;;;11.08;65.14;101300.50;5116324;27;19915;-79
2021/12/30 05:16:52;;;;;;;;;;;;;;;11.09;65.23;101299.66;5111193;28;19920;-78
2021/12/30 05:19:19;;;;;;;;;;;;;;;11.14;65.36;101300.75;5111606;27;19919;-78
2021/12/30 05:21:44;;;;;;;;;;;;;;;11.20;65.56;101307.09;5105522;27;20360;-79
2021/12/30 05:24:09;;;;;;;;;;;;;;;11.23;65.77;101309.84;5118090;27;19960;-78
2021/12/30 05:26:34;;;;;;;;;;;;;;;11.25;66.13;101316.09;5098358;28;19951;-78
2021/12/30 05:29:00;;;;;;;;;;;;;;;11.32;66.67;101305.84;5098162;28;19919;-78
2021/12/30 05:31:25;;;;;;;;;;;;;;;11.39;67.38;101307.00;5102789;27;19923;-77
2021/12/30 05:33:51;;;;;;;;;;;;;;;11.39;68.23;101307.00;5118392;27;19919;-79
2021/12/30 05:36:16;;;;;;;;;;;;;;;11.37;69.06;101306.03;5108642;28;20337;-79
2021/12/30 05:38:43;;;;;;;;;;;;;;;11.44;69.96;101299.28;5098064;28;19919;-77
2021/12/30 05:41:08;;;;;;;;;;;;;;;11.44;71.23;101296.63;5106185;27;20649;-78
2021/12/30 05:43:34;;;;;;;;;;;;;;;11.46;72.32;101297.59;5107087;28;19955;-78
2021/12/30 05:45:59;;;;;;;;;;;;;;;11.44;73.37;101294.91;5114689;28;19934;-78
2021/12/30 05:48:24;;;;;;;;;;;;;;;11.43;73.95;101292.19;5114822;28;20343;-78
2021/12/30 05:50:50;;;;;;;;;;;;;;;11.42;74.40;101298.28;5108701;27;19938;-79
2021/12/30 05:53:15;;;;;;;;;;;;;;;11.43;74.95;101294.84;5135828;27;20365;-78
2021/12/30 05:55:40;;;;;;;;;;;;;;;11.41;75.58;101304.44;5106800;27;19919;-77
2021/12/30 05:58:07;;;;;;;;;;;;;;;11.44;76.02;101305.44;5112932;28;19919;-79
2021/12/30 06:00:32;;;;;;;;;;;;;;;11.48;76.51;101319.63;5098331;28;19920;-79
2021/12/30 06:02:58;;;;;;;;;;;;;;;11.47;77.17;101325.78;5131390;27;19926;-78
2021/12/30 06:05:23;;;;;;;;;;;;;;;11.44;77.60;101325.66;5110890;27;20018;-78
2021/12/30 06:07:51;;;;;;;;;;;;;;;11.43;77.66;101324.72;5104009;28;19920;-78
2021/12/30 06:10:17;;;;;;;;;;;;;;;11.42;77.95;101333.50;5134514;27;19924;-79
2021/12/30 06:12:43;;;;;;;;;;;;;;;11.39;78.29;101321.91;5117809;27;19926;-78
2021/12/30 06:15:09;;;;;;;;;;;;;;;11.37;78.41;101335.03;5115703;27;19920;-79
2021/12/30 06:17:37;;;;;;;;;;;;;;;11.36;78.38;101342.88;5097610;28;19919;-79
2021/12/30 06:20:03;;;;;;;;;;;;;;;11.30;78.27;101306.63;5110141;28;19923;-78
2021/12/30 06:22:28;;;;;;;;;;;;;;;11.32;78.17;101339.22;5100657;28;19920;-78
2021/12/30 06:24:54;;;;;;;;;;;;;;;11.34;78.33;101336.66;5097403;28;19931;-78
2021/12/30 06:27:19;;;;;;;;;;;;;;;11.35;78.59;101346.38;5100544;27;19919;-79
2021/12/30 06:29:44;;;;;;;;;;;;;;;11.37;78.75;101331.50;5108954;28;19920;-79
2021/12/30 06:32:09;;;;;;;;;;;;;;;11.34;79.19;101334.91;5106684;28;20390;-79
2021/12/30 06:34:35;;;;;;;;;;;;;;;11.32;79.34;101334.84;5103978;27;19924;-79
2021/12/30 06:37:00;;;;;;;;;;;;;;;11.34;79.46;101341.91;5113143;28;20212;-79
2021/12/30 06:39:31;;;;;;;;;;;;;;;11.31;79.84;101337.41;5134410;27;19920;-77
2021/12/30 06:41:56;;;;;;;;;;;;;;;11.35;80.08;101344.63;5117400;27;20004;-78
2021/12/30 06:44:22;;;;;;;;;;;;;;;11.29;80.42;101347.00;5113522;27;19929;-78
2021/12/30 06:46:55;;;;;;;;;;;;;;;11.26;80.42;101341.59;5108531;28;19920;-79
2021/12/30 06:49:21;;;;;;;;;;;;;;;11.26;80.08;101358.34;5108222;27;20019;-80
2021/12/30 06:51:46;;;;;;;;;;;;;;;11.27;79.86;101362.75;5117103;27;19926;-80
2021/12/30 06:54:12;;;;;;;;;;;;;;;11.26;79.79;101373.25;5099193;28;19920;-79
2021/12/30 06:56:37;;;;;;;;;;;;;;;11.23;79.74;101371.41;5109051;28;19976;-79
2021/12/30 06:59:03;;;;;;;;;;;;;;;11.25;79.63;101375.00;5118781;28;19919;-79
2021/12/30 07:01:29;;;;;;;;;;;;;;;11.29;79.73;101384.81;5097596;28;19919;-78
2021/12/30 07:03:54;;;;;;;;;;;;;;;11.31;80.10;101385.78;5103064;28;20021;-79
2021/12/30 07:06:19;;;;;;;;;;;;;;;11.28;80.56;101385.66;5096479;28;19959;-78
2021/12/30 07:08:45;;;;;;;;;;;;;;;11.23;80.67;101379.31;5111458;28;19962;-78
2021/12/30 07:11:11;;;;;;;;;;;;;;;11.25;80.62;101377.63;5114834;28;19923;-78
2021/12/30 07:13:36;;;;;;;;;;;;;;;11.24;80.72;101373.19;5102927;28;20423;-79
2021/12/30 07:16:01;;;;;;;;;;;;;;;11.21;80.85;101386.22;5111307;28;19927;-79
2021/12/30 07:18:29;;;;;;;;;;;;;;;11.21;80.92;101382.72;5105710;28;19993;-78
2021/12/30 07:20:54;;;;;;;;;;;;;;;11.19;81.05;101381.75;5112155;27;19929;-78
2021/12/30 07:23:19;;;;;;;;;;;;;;;11.21;81.15;101378.31;5120487;27;19920;-79
2021/12/30 07:25:44;;;;;;;;;;;;;;;11.20;81.36;101384.47;5119871;27;19919;-78
2021/12/30 07:28:11;;;;;;;;;;;;;;;11.21;81.63;101390.63;5113916;28;19998;-79
2021/12/30 07:30:36;;;;;;;;;;;;;;;11.24;81.83;101396.03;5100733;28;19920;-79
2021/12/30 07:33:06;;;;;;;;;;;;;;;11.23;82.21;101397.75;5099495;28;19934;-79
2021/12/30 07:35:31;;;;;;;;;;;;;;;11.21;82.62;101402.06;5119211;27;19950;-78
2021/12/30 07:38:01;;;;;;;;;;;;;;;11.21;82.92;101409.97;5117764;27;20279;-79
2021/12/30 07:40:26;;;;;;;;;;;;;;;11.25;83.35;101417.19;5135303;27;19926;-79
2021/12/30 07:42:51;;;;;;;;;;;;;;;11.25;83.95;101422.44;5117937;27;19919;-79
2021/12/30 07:45:17;;;;;;;;;;;;;;;11.25;84.57;101419.81;5133610;27;19920;-79
2021/12/30 07:47:43;;;;;;;;;;;;;;;11.25;85.17;101433.00;5119773;27;20301;-79
2021/12/30 07:50:09;;;;;;;;;;;;;;;11.23;85.55;101433.75;5115352;27;19919;-77
2021/12/30 07:52:34;;;;;;;;;;;;;;;11.19;86.00;101434.47;5102772;28;20008;-78
2021/12/30 07:55:01;;;;;;;;;;;;;;;11.22;86.15;101437.25;5102057;27;19941;-79
2021/12/30 07:57:29;;;;;;;;;;;;;;;11.25;86.73;101437.38;5110646;28;20219;-79
2021/12/30 07:59:55;;;;;;;;;;;;;;;11.26;87.82;101425.97;5099613;28;20407;-78
2021/12/30 08:02:21;;;;;;;;;;;;;;;11.27;88.88;101419.88;5099040;28;19920;-78
2021/12/30 08:04:46;;;;;;;;;;;;;;;11.27;90.31;101428.66;5106638;27;19926;-78
2021/12/30 08:07:21;;;;;;;;;;;;;;;11.30;91.28;101439.34;5119791;27;19927;-79
2021/12/30 08:09:47;;;;;;;;;;;;;;;11.29;92.60;101431.38;5119393;27;19927;-79
2021/12/30 08:12:12;;;;;;;;;;;;;;;11.31;94.37;101434.97;5117656;27;19923;-79
2021/12/30 08:14:37;;;;;;;;;;;;;;;11.36;95.76;101432.53;5102141;28;20322;-79
2021/12/30 08:17:02;;;;;;;;;;;;;;;11.33;97.66;101433.31;5110999;27;19927;-80
2021/12/30 08:19:28;;;;;;;;;;;;;;;11.31;99.65;101412.16;5119651;27;19923;-78
2021/12/30 08:21:53;;;;;;;;;;;;;;;11.38;100.00;101405.41;5118976;27;19920;-79
2021/12/30 08:24:18;;;;;;;;;;;;;;;11.40;100.00;101405.47;5120118;27;20277;-79
2021/12/30 08:26:44;;;;;;;;;;;;;;;11.44;100.00;101410.03;5099203;28;20034;-79
2021/12/30 08:29:11;;;;;;;;;;;;;;;11.47;100.00;101399.63;5098918;28;19999;-79
2021/12/30 08:31:36;;;;;;;;;;;;;;;11.49;100.00;101406.72;5119555;27;19919;-80
2021/12/30 08:34:03;;;;;;;;;;;;;;;11.51;100.00;101409.44;5119228;27;19919;-80
2021/12/30 08:36:28;;;;;;;;;;;;;;;11.56;100.00;101405.25;5103102;28;20006;-80
2021/12/30 08:38:54;;;;;;;;;;;;;;;11.57;100.00;101387.69;5099494;28;19966;-80
2021/12/30 08:41:20;;;;;;;;;;;;;;;11.61;100.00;101373.81;5099750;28;20053;-79
2021/12/30 08:43:45;;;;;;;;;;;;;;;11.65;100.00;101378.34;5116061;27;20369;-80
2021/12/30 08:46:10;;;;;;;;;;;;;;;11.67;100.00;101379.31;5119697;27;20006;-81
2021/12/30 08:48:37;;;;;;;;;;;;;;;11.67;100.00;101368.78;5120047;27;19926;-80
2021/12/30 08:51:02;;;;;;;;;;;;;;;11.71;100.00;101360.13;5118808;27;19915;-79
2021/12/30 08:53:29;;;;;;;;;;;;;;;11.73;100.00;101350.53;5119938;27;19938;-79
2021/12/30 08:55:54;;;;;;;;;;;;;;;11.80;100.00;101352.56;5137754;27;19927;-80
2021/12/30 08:58:22;;;;;;;;;;;;;;;11.79;100.00;101356.06;5119636;27;20275;-79
2021/12/30 09:00:47;;;;;;;;;;;;;;;11.81;100.00;101357.00;5115499;27;19919;-79
2021/12/30 09:03:14;;;;;;;;;;;;;;;11.80;100.00;101352.56;5119597;27;20277;-80
2021/12/30 09:05:39;;;;;;;;;;;;;;;11.83;100.00;101346.53;5113545;28;19924;-80
2021/12/30 09:08:06;;;;;;;;;;;;;;;11.89;100.00;101345.88;5115486;28;20260;-79
2021/12/30 09:10:37;;;;;;;;;;;;;;;11.91;100.00;101333.63;5115899;28;19920;-77
2021/12/30 09:13:02;;;;;;;;;;;;;;;12.00;100.00;101315.53;5115618;28;20018;-79
2021/12/30 09:15:29;;;;;;;;;;;;;;;12.02;100.00;101327.03;5115361;28;19967;-80
2021/12/30 09:17:57;;;;;;;;;;;;;;;12.03;100.00;101326.19;5115399;28;19924;-79
2021/12/30 09:20:22;;;;;;;;;;;;;;;12.08;100.00;101321.97;5114822;28;20356;-78
2021/12/30 09:22:48;;;;;;;;;;;;;;;12.10;100.00;101316.75;5115126;28;19920;-78
2021/12/30 09:25:14;;;;;;;;;;;;;;;12.13;100.00;101324.78;5113573;28;19919;-80
2021/12/30 09:27:43;;;;;;;;;;;;;;;12.11;100.00;101319.47;5112966;28;19972;-78
2021/12/30 09:30:11;;;;;;;;;;;;;;;12.14;100.00;101314.28;5115241;28;20000;-79
2021/12/30 09:32:36;;;;;;;;;;;;;;;12.17;100.00;101303.84;5097504;28;20206;-77
2021/12/30 09:35:03;;;;;;;;;;;;;;;12.13;100.00;101312.47;5094397;28;19985;-79
2021/12/30 09:37:29;;;;;;;;;;;;;;;12.16;100.00;101307.31;5106342;28;19966;-80
2021/12/30 09:39:55;;;;;;;;;;;;;;;12.12;100.00;101305.44;5130715;27;19930;-79
2021/12/30 09:42:20;;;;;;;;;;;;;;;12.11;100.00;101308.91;5113925;28;19920;-79
2021/12/30 09:44:46;;;;;;;;;;;;;;;12.04;100.00;101306.84;5111513;28;20283;-78
2021/12/30 09:47:11;;;;;;;;;;;;;;;12.01;100.00;101327.91;5112334;28;20040;-81
2021/12/30 09:49:36;;;;;;;;;;;;;;;12.00;100.00;101326.09;5094280;28;19920;-80
2021/12/30 09:52:02;;;;;;;;;;;;;;;11.96;100.00;101313.59;5095362;28;19923;-80
2021/12/30 09:54:27;;;;;;;;;;;;;;;11.93;100.00;101327.59;5094263;28;19977;-80
2021/12/30 09:56:53;;;;;;;;;;;;;;;11.96;100.00;101332.06;5104014;28;19924;-78
2021/12/30 09:59:22;;;;;;;;;;;;;;;11.93;100.00;101327.59;5114599;28;19970;-77
2021/12/30 10:01:47;;;;;;;;;;;;;;;11.96;100.00;101325.09;5095864;28;19916;-79
2021/12/30 10:04:12;;;;;;;;;;;;;;;11.98;100.00;101349.78;5112115;27;21309;-78
2021/12/30 10:06:42;;;;;;;;;;;;;;;11.97;100.00;101331.25;5114312;28;19920;-78
2021/12/30 10:09:12;;;;;;;;;;;;;;;12.04;100.00;101333.25;5097449;28;19920;-79
2021/12/30 10:11:47;;;;;;;;;;;;;;;12.04;100.00;101335.91;5097850;28;20313;-78
2021/12/30 10:14:12;;;;;;;;;;;;;;;12.03;100.00;101335.00;5097498;28;19919;-79
2021/12/30 10:16:38;;;;;;;;;;;;;;;12.06;100.00;101335.97;5100150;27;19973;-80
2021/12/30 10:19:09;;;;;;;;;;;;;;;12.07;100.00;101337.75;5117936;27;19919;-78
2021/12/30 10:21:37;;;;;;;;;;;;;;;12.01;100.00;101319.97;5117430;27;19923;-79
2021/12/30 10:24:07;;;;;;;;;;;;;;;12.02;100.00;101341.16;5117486;27;19919;-79
2021/12/30 10:26:55;;;;;;;;;;;;;;;11.97;100.00;101329.50;5115512;27;19970;-78
2021/12/30 10:29:21;;;;;;;;;;;;;;;11.90;100.00;101345.00;5097163;28;19951;-78
2021/12/30 10:31:48;;;;;;;;;;;;;;;11.84;100.00;101337.78;5096796;28;20012;-79
2021/12/30 10:34:16;;;;;;;;;;;;;;;11.86;100.00;101334.34;5097086;28;19920;-81
2021/12/30 10:36:43;;;;;;;;;;;;;;;11.86;100.00;101336.97;5096592;28;19920;-78
2021/12/30 10:39:27;;;;;;;;;;;;;;;11.83;100.00;101330.69;5115673;27;20586;-79
2021/12/30 10:42:09;;;;;;;;;;;;;;;11.82;100.00;101350.91;5101044;27;19928;-80
2021/12/30 10:44:54;;;;;;;;;;;;;;;11.82;100.00;101356.19;5114517;27;20010;-79
2021/12/30 10:47:25;;;;;;;;;;;;;;;11.71;100.00;101362.75;5110832;27;19919;-79
2021/12/30 10:50:11;;;;;;;;;;;;;;;11.72;100.00;101364.56;5105046;27;19923;-79
2021/12/30 10:52:55;;;;;;;;;;;;;;;11.67;100.00;101356.47;5111895;28;19927;-79
2021/12/30 10:55:21;;;;;;;;;;;;;;;11.71;100.00;101357.47;5130387;27;20334;-78
2021/12/30 10:57:47;;;;;;;;;;;;;;;11.68;100.00;101363.56;5095879;28;19954;-79
2021/12/30 11:00:33;;;;;;;;;;;;;;;11.68;100.00;101370.53;5103863;27;19955;-79
2021/12/30 11:03:17;;;;;;;;;;;;;;;11.75;100.00;101374.34;5111706;27;19916;-78
2021/12/30 11:06:02;;;;;;;;;;;;;;;11.75;100.00;101363.78;5114883;27;19919;-78
2021/12/30 11:08:29;;;;;;;;;;;;;;;11.72;100.00;101364.56;5109472;28;21154;-78
2021/12/30 11:10:57;;;;;;;;;;;;;;;11.74;100.00;101362.88;5127954;28;19920;-79
2021/12/30 11:13:23;;;;;;;;;;;;;;;11.77;100.00;101370.91;5119733;28;19926;-79
2021/12/30 11:16:01;;;;;;;;;;;;;;;11.77;100.00;101362.09;5115711;28;19919;-79
2021/12/30 11:18:39;;;;;;;;;;;;;;;11.83;100.00;101367.63;5130841;28;19920;-78
2021/12/30 11:21:04;;;;;;;;;;;;;;;11.82;100.00;101348.28;5116882;27;19923;-79
2021/12/30 11:23:30;;;;;;;;;;;;;;;11.86;100.00;101373.91;5096174;28;20401;-79
2021/12/30 11:25:55;;;;;;;;;;;;;;;11.88;100.00;101381.88;5106600;28;20362;-78
2021/12/30 11:28:23;;;;;;;;;;;;;;;11.91;100.00;101375.84;5099104;28;20284;-79
2021/12/30 11:30:48;;;;;;;;;;;;;;;11.92;100.00;101388.22;5096315;28;19955;-78
2021/12/30 11:33:14;;;;;;;;;;;;;;;11.88;100.00;101381.88;5116539;28;19990;-78
2021/12/30 11:35:39;;;;;;;;;;;;;;;11.92;100.00;101394.41;5128491;28;19919;-79
2021/12/30 11:38:04;;;;;;;;;;;;;;;11.96;100.00;101408.63;5129830;28;20006;-80
2021/12/30 11:40:31;;;;;;;;;;;;;;;11.96;100.00;101391.06;5127567;28;19931;-80
2021/12/30 11:43:07;;;;;;;;;;;;;;;12.05;100.00;101405.44;5116568;28;19915;-80
2021/12/30 11:45:40;;;;;;;;;;;;;;;12.00;100.00;101405.28;5132900;28;19926;-80
2021/12/30 11:48:24;;;;;;;;;;;;;;;12.02;100.00;101400.94;5116052;28;19931;-78
2021/12/30 11:51:00;;;;;;;;;;;;;;;12.04;100.00;101399.25;5095990;28;19968;-78
2021/12/30 11:53:26;;;;;;;;;;;;;;;12.07;100.00;101396.72;5096324;28;20329;-79
2021/12/30 11:55:53;;;;;;;;;;;;;;;12.07;100.00;101386.16;5095825;28;19923;-79
2021/12/30 11:58:40;;;;;;;;;;;;;;;12.08;100.00;101387.09;5110036;28;19926;-79
2021/12/30 12:01:11;;;;;;;;;;;;;;;12.06;100.00;101379.09;5092784;28;20272;-79
2021/12/30 12:03:43;;;;;;;;;;;;;;;12.10;100.00;101385.41;5095565;28;19942;-79
2021/12/30 12:06:24;;;;;;;;;;;;;;;12.12;100.00;101391.63;5095981;28;19920;-79
2021/12/30 12:08:50;;;;;;;;;;;;;;;12.09;100.00;101380.94;5113723;27;19920;-78
2021/12/30 12:11:16;;;;;;;;;;;;;;;12.08;100.00;101389.72;5135103;27;19969;-79
2021/12/30 12:13:43;;;;;;;;;;;;;;;12.06;100.00;101379.09;5117854;27;19961;-79
2021/12/30 12:16:08;;;;;;;;;;;;;;;12.05;100.00;101386.97;5119826;27;19923;-79
2021/12/30 12:18:34;;;;;;;;;;;;;;;12.05;100.00;101385.22;5121531;27;19919;-79
2021/12/30 12:21:01;;;;;;;;;;;;;;;12.05;100.00;101386.97;5103687;27;19924;-79
2021/12/30 12:23:32;;;;;;;;;;;;;;;12.04;100.00;101386.03;5109078;27;19919;-78
2021/12/30 12:26:15;;;;;;;;;;;;;;;12.05;100.00;101385.22;5119852;27;19926;-78
2021/12/30 12:28:42;;;;;;;;;;;;;;;12.06;100.00;101384.38;5118513;27;20356;-78
2021/12/30 12:31:08;;;;;;;;;;;;;;;12.03;100.00;101392.19;5120073;27;19919;-79
2021/12/30 12:33:35;;;;;;;;;;;;;;;12.04;100.00;101388.69;5107536;27;19920;-79